Time;durP1;ratioP1;P1;durP2;ratioP2;P2;SDS_P1;SDS_P2;PMS_P1;PMS_P2;Temp;Humidity;BMP_temperature;BMP_pressure;BME280_temperature;BME280_humidity;BME280_pressure;Samples;Min_cycle;Max_cycle;Signal;HPM_P1;HPM_P2
2024/01/08 00:01:24;;;;;;;4.30;2.30;;;0.40;98.00;;;;;;5055476;28;20776;-64
2024/01/08 00:03:51;;;;;;;4.27;2.30;;;0.50;98.00;;;;;;5055710;28;20794;-65
2024/01/08 00:06:18;;;;;;;5.63;2.40;;;0.50;98.00;;;;;;5054831;28;20840;-65
2024/01/08 00:08:45;;;;;;;5.80;2.60;;;0.50;98.00;;;;;;5055174;28;20535;-65
2024/01/08 00:11:15;;;;;;;7.30;2.77;;;0.50;98.00;;;;;;5054955;28;20451;-65
2024/01/08 00:13:42;;;;;;;4.93;2.50;;;0.40;98.00;;;;;;5055093;28;20456;-65
2024/01/08 00:16:11;;;;;;;5.03;2.57;;;0.40;98.00;;;;;;5054761;28;20484;-65
2024/01/08 00:18:38;;;;;;;2.97;2.40;;;0.40;98.00;;;;;;5054767;28;20528;-65
2024/01/08 00:21:05;;;;;;;4.30;2.17;;;0.40;98.00;;;;;;5054925;28;20972;-65
2024/01/08 00:23:35;;;;;;;4.83;2.57;;;0.40;98.00;;;;;;5055010;28;20821;-65
2024/01/08 00:26:03;;;;;;;5.63;2.40;;;0.30;98.00;;;;;;5054840;28;20485;-65
2024/01/08 00:28:30;;;;;;;4.47;2.50;;;0.30;98.00;;;;;;5036614;28;20790;-65
2024/01/08 00:30:57;;;;;;;2.93;2.20;;;0.30;98.00;;;;;;5054266;28;20445;-65
2024/01/08 00:33:26;;;;;;;3.80;2.37;;;0.10;98.00;;;;;;5020400;28;20868;-65
2024/01/08 00:35:53;;;;;;;3.23;2.00;;;0.20;98.00;;;;;;5054324;28;20488;-65
2024/01/08 00:38:20;;;;;;;4.30;2.30;;;0.00;98.00;;;;;;5054473;28;20499;-65
2024/01/08 00:40:48;;;;;;;5.13;2.60;;;0.10;98.00;;;;;;5054306;28;20485;-65
2024/01/08 00:43:15;;;;;;;4.67;2.63;;;0.10;98.00;;;;;;5054375;28;20464;-65
2024/01/08 00:45:42;;;;;;;4.90;2.70;;;0.20;98.00;;;;;;5053607;28;20460;-65
2024/01/08 00:48:11;;;;;;;6.93;2.83;;;0.10;98.00;;;;;;5054445;28;20947;-65
2024/01/08 00:50:39;;;;;;;3.23;2.20;;;0.20;98.00;;;;;;5054177;28;20453;-65
2024/01/08 00:53:06;;;;;;;4.23;2.70;;;0.20;98.00;;;;;;5054300;28;20461;-65
2024/01/08 00:55:33;;;;;;;5.00;2.70;;;0.30;98.00;;;;;;5053956;28;20485;-65
2024/01/08 00:58:00;;;;;;;9.33;2.87;;;0.50;98.00;;;;;;5054120;28;20444;-65
2024/01/08 01:00:27;;;;;;;4.27;2.27;;;0.40;98.00;;;;;;5054088;28;20449;-66
2024/01/08 01:02:54;;;;;;;5.30;2.57;;;0.40;98.00;;;;;;5054095;28;20475;-65
2024/01/08 01:05:21;;;;;;;4.77;2.60;;;0.40;98.00;;;;;;5054027;28;20475;-65
2024/01/08 01:07:50;;;;;;;6.30;2.80;;;0.50;98.00;;;;;;5053890;28;20452;-65
2024/01/08 01:10:17;;;;;;;4.60;2.70;;;0.60;98.00;;;;;;5053791;28;20510;-65
2024/01/08 01:12:44;;;;;;;4.20;2.53;;;0.60;98.00;;;;;;5053918;28;20468;-65
2024/01/08 01:15:11;;;;;;;6.33;2.27;;;0.60;98.00;;;;;;5053648;28;21003;-66
2024/01/08 01:17:38;;;;;;;4.60;2.53;;;0.60;98.00;;;;;;5035900;28;20560;-65
2024/01/08 01:20:08;;;;;;;4.87;2.40;;;0.40;98.00;;;;;;5053514;28;20453;-65
2024/01/08 01:22:37;;;;;;;4.80;2.70;;;0.40;98.00;;;;;;5053635;28;20456;-65
2024/01/08 01:25:06;;;;;;;5.83;2.60;;;0.30;98.00;;;;;;5053550;28;20452;-65
2024/01/08 01:27:33;;;;;;;4.60;2.60;;;0.20;98.00;;;;;;5036118;28;20464;-65
2024/01/08 01:30:00;;;;;;;4.70;2.20;;;0.20;98.00;;;;;;5053373;28;20448;-65
2024/01/08 01:32:28;;;;;;;5.50;2.67;;;0.20;98.00;;;;;;5053734;28;20777;-65
2024/01/08 01:34:55;;;;;;;6.63;2.73;;;0.20;98.00;;;;;;5053436;28;20477;-65
2024/01/08 01:37:23;;;;;;;3.50;2.50;;;0.10;98.00;;;;;;5053579;28;20448;-66
2024/01/08 01:39:50;;;;;;;5.90;2.70;;;0.20;98.00;;;;;;5053450;28;20488;-65
2024/01/08 01:42:19;;;;;;;6.73;2.90;;;0.20;98.00;;;;;;5053388;28;20448;-65
2024/01/08 01:44:46;;;;;;;4.80;2.53;;;0.30;98.00;;;;;;5053666;28;20464;-65
2024/01/08 01:47:13;;;;;;;7.00;3.17;;;0.20;98.00;;;;;;5053504;28;20459;-65
2024/01/08 01:49:40;;;;;;;25.30;2.90;;;0.30;98.00;;;;;;5053487;28;20449;-65
2024/01/08 01:52:09;;;;;;;4.43;2.77;;;0.20;98.00;;;;;;5052835;28;20455;-65
2024/01/08 01:54:37;;;;;;;3.60;2.33;;;0.10;98.00;;;;;;5053039;28;20448;-65
2024/01/08 01:57:06;;;;;;;4.87;2.87;;;0.10;98.00;;;;;;5052234;28;21021;-65
2024/01/08 01:59:35;;;;;;;4.80;2.43;;;0.00;98.00;;;;;;5053074;28;20462;-65
2024/01/08 02:02:03;;;;;;;4.07;2.53;;;-0.10;98.00;;;;;;5052661;28;20546;-65
2024/01/08 02:04:31;;;;;;;4.50;2.50;;;0.10;98.00;;;;;;5052996;28;20831;-65
2024/01/08 02:06:59;;;;;;;5.60;2.73;;;0.10;98.00;;;;;;5052739;28;20858;-65
2024/01/08 02:09:28;;;;;;;4.33;2.40;;;0.20;98.00;;;;;;5052786;28;20797;-65
2024/01/08 02:11:55;;;;;;;4.93;2.63;;;0.20;98.00;;;;;;5052610;28;20467;-65
2024/01/08 02:14:22;;;;;;;4.70;2.60;;;0.40;98.00;;;;;;5052561;28;20446;-65
2024/01/08 02:16:51;;;;;;;5.40;2.90;;;0.30;98.00;;;;;;5052385;28;20485;-66
2024/01/08 02:19:18;;;;;;;6.50;2.90;;;0.20;98.00;;;;;;5052528;28;20461;-65
2024/01/08 02:21:46;;;;;;;3.93;2.47;;;0.20;98.00;;;;;;5052275;28;20453;-65
2024/01/08 02:24:15;;;;;;;7.63;3.30;;;0.20;98.00;;;;;;5052283;28;20445;-65
2024/01/08 02:26:42;;;;;;;4.47;2.87;;;0.30;98.00;;;;;;5052346;28;20449;-65
2024/01/08 02:29:09;;;;;;;4.53;2.93;;;0.20;98.00;;;;;;5052626;28;20465;-64
2024/01/08 02:31:36;;;;;;;5.50;3.20;;;0.30;98.00;;;;;;5052094;28;20470;-65
2024/01/08 02:34:04;;;;;;;5.10;3.23;;;0.40;98.00;;;;;;5052251;28;21144;-66
2024/01/08 02:36:31;;;;;;;6.87;2.80;;;0.30;98.00;;;;;;5052153;28;20482;-65
2024/01/08 02:38:58;;;;;;;6.67;3.20;;;0.30;98.00;;;;;;5034518;28;20461;-64
2024/01/08 02:41:27;;;;;;;4.80;2.70;;;0.40;98.00;;;;;;5052287;28;20453;-65
2024/01/08 02:43:54;;;;;;;5.50;2.67;;;0.30;98.00;;;;;;5052381;28;20460;-65
2024/01/08 02:46:21;;;;;;;7.00;3.10;;;0.30;98.00;;;;;;5051974;28;20822;-65
2024/01/08 02:48:49;;;;;;;4.73;2.50;;;0.40;98.00;;;;;;5032788;28;20455;-65
2024/01/08 02:51:16;;;;;;;5.83;2.70;;;0.40;98.00;;;;;;5051732;28;20456;-64
2024/01/08 02:53:44;;;;;;;6.20;2.97;;;0.40;98.00;;;;;;5051756;28;20517;-65
2024/01/08 02:56:19;;;;;;;5.23;2.80;;;0.40;98.00;;;;;;5051590;28;20488;-65
2024/01/08 02:58:47;;;;;;;6.17;2.70;;;0.30;98.00;;;;;;5051492;28;20458;-65
2024/01/08 03:01:15;;;;;;;6.13;2.97;;;0.30;98.00;;;;;;5051097;28;20457;-65
2024/01/08 03:03:42;;;;;;;5.30;2.50;;;0.20;98.00;;;;;;5051349;28;20455;-65
2024/01/08 03:06:09;;;;;;;5.90;3.10;;;0.30;98.00;;;;;;5051046;28;20486;-65
2024/01/08 03:08:36;;;;;;;5.60;2.87;;;0.30;98.00;;;;;;5051804;28;20478;-65
2024/01/08 03:11:03;;;;;;;3.93;2.40;;;0.20;98.00;;;;;;5051837;28;20452;-65
2024/01/08 03:13:30;;;;;;;4.57;2.70;;;0.10;98.00;;;;;;5052107;28;20990;-65
2024/01/08 03:16:01;;;;;;;4.45;2.25;;;-0.10;98.00;;;;;;5051735;28;20530;-65
2024/01/08 03:18:27;;;;;;;7.87;2.77;;;-0.10;98.00;;;;;;5052138;28;20201;-65
2024/01/08 03:20:54;;;;;;;5.85;2.40;;;-0.10;98.00;;;;;;5051636;28;20501;-65
2024/01/08 03:23:21;;;;;;;3.60;2.90;;;-0.10;98.00;;;;;;5051914;28;20551;-65
2024/01/08 03:25:48;;;;;;;4.20;2.53;;;-0.20;98.00;;;;;;5051730;28;20466;-65
2024/01/08 03:28:15;;;;;;;5.10;2.50;;;-0.20;98.00;;;;;;5051754;28;20456;-65
2024/01/08 03:30:42;;;;;;;6.33;3.10;;;-0.20;98.00;;;;;;5051659;28;20947;-65
2024/01/08 03:33:11;;;;;;;3.30;2.50;;;-0.20;98.00;;;;;;5051826;28;20452;-65
2024/01/08 03:35:38;;;;;;;5.30;2.67;;;-0.30;98.00;;;;;;5051661;28;20463;-65
2024/01/08 03:38:05;;;;;;;3.53;2.20;;;-0.20;98.00;;;;;;5034072;28;20844;-65
2024/01/08 03:40:33;;;;;;;3.97;2.33;;;-0.30;98.00;;;;;;5051805;28;20447;-65
2024/01/08 03:43:00;;;;;;;4.47;2.50;;;-0.20;98.00;;;;;;5051344;28;20466;-65
2024/01/08 03:45:27;;;;;;;5.50;2.93;;;-0.20;98.00;;;;;;5051824;28;20539;-65
2024/01/08 03:47:54;;;;;;;5.90;2.90;;;-0.20;98.00;;;;;;5051323;28;20451;-66
2024/01/08 03:50:23;;;;;;;3.43;2.40;;;-0.10;98.00;;;;;;5051247;28;20461;-65
2024/01/08 03:52:50;;;;;;;5.93;2.93;;;-0.20;98.00;;;;;;5051202;28;20468;-65
2024/01/08 03:55:17;;;;;;;5.50;2.83;;;-0.10;98.00;;;;;;5051576;28;20999;-65
2024/01/08 03:57:44;;;;;;;5.80;2.70;;;-0.10;98.00;;;;;;5051074;28;20480;-65
2024/01/08 04:00:12;;;;;;;3.33;2.60;;;0.00;98.00;;;;;;5050940;28;20449;-65
2024/01/08 04:02:40;;;;;;;6.10;3.30;;;0.10;98.00;;;;;;5050896;28;20463;-65
2024/01/08 04:05:09;;;;;;;5.20;3.07;;;0.20;98.00;;;;;;5051020;28;20536;-65
2024/01/08 04:07:37;;;;;;;3.80;2.40;;;0.20;98.00;;;;;;5051124;28;20531;-65
2024/01/08 04:10:05;;;;;;;7.60;3.00;;;0.00;98.00;;;;;;5051198;28;20650;-65
2024/01/08 04:12:32;;;;;;;6.13;2.97;;;0.00;98.00;;;;;;5051034;28;20483;-65
2024/01/08 04:14:59;;;;;;;7.30;2.90;;;0.00;98.00;;;;;;5051219;28;20451;-65
2024/01/08 04:17:28;;;;;;;4.43;2.70;;;-0.10;98.00;;;;;;5051248;28;20900;-65
2024/01/08 04:19:56;;;;;;;4.00;2.20;;;-0.10;98.00;;;;;;5051281;28;20452;-65
2024/01/08 04:22:23;;;;;;;4.57;2.37;;;-0.10;98.00;;;;;;5054483;28;20456;-65
2024/01/08 04:24:51;;;;;;;3.87;2.60;;;-0.20;98.00;;;;;;5054656;28;20445;-65
2024/01/08 04:27:19;;;;;;;3.07;2.13;;;-0.30;98.00;;;;;;5054684;28;20452;-65
2024/01/08 04:29:46;;;;;;;4.50;2.50;;;-0.30;98.00;;;;;;5054309;28;20456;-65
2024/01/08 04:32:13;;;;;;;4.90;2.60;;;-0.20;98.00;;;;;;5054470;28;20459;-65
2024/01/08 04:34:40;;;;;;;6.70;3.10;;;-0.10;98.00;;;;;;5036968;28;20457;-65
2024/01/08 04:37:07;;;;;;;5.00;3.00;;;-0.10;98.00;;;;;;5054199;28;20493;-65
2024/01/08 04:39:34;;;;;;;8.50;3.10;;;0.00;98.00;;;;;;5054584;28;20869;-65
2024/01/08 04:42:03;;;;;;;6.00;3.13;;;0.00;98.00;;;;;;5054496;28;20460;-65
2024/01/08 04:44:32;;;;;;;5.30;3.07;;;0.00;98.00;;;;;;5054773;28;20467;-65
2024/01/08 04:46:59;;;;;;;6.00;3.13;;;0.00;98.00;;;;;;5054294;28;20803;-65
2024/01/08 04:49:27;;;;;;;5.53;2.80;;;0.00;98.00;;;;;;5054307;28;20970;-65
2024/01/08 04:51:54;;;;;;;7.63;3.40;;;-0.10;98.00;;;;;;5054492;28;20464;-65
2024/01/08 04:54:22;;;;;;;6.60;3.20;;;0.00;98.00;;;;;;5054591;28;20540;-64
2024/01/08 04:56:49;;;;;;;5.93;3.00;;;0.00;98.00;;;;;;5053886;28;20822;-65
2024/01/08 04:59:19;;;;;;;7.60;3.30;;;0.00;98.00;;;;;;5054336;28;20939;-65
2024/01/08 05:01:48;;;;;;;5.23;2.90;;;0.00;98.00;;;;;;5054202;28;20494;-65
2024/01/08 05:04:15;;;;;;;7.90;3.17;;;0.00;98.00;;;;;;5054346;28;20462;-64
2024/01/08 05:06:44;;;;;;;7.57;3.30;;;0.00;98.00;;;;;;5054216;28;20464;-65
2024/01/08 05:09:11;;;;;;;7.30;3.27;;;0.00;98.00;;;;;;5054018;28;20472;-65
2024/01/08 05:11:40;;;;;;;5.33;2.90;;;0.00;98.00;;;;;;5054084;28;20469;-65
2024/01/08 05:14:08;;;;;;;6.90;3.27;;;-0.10;98.00;;;;;;5053795;28;20455;-65
2024/01/08 05:16:38;;;;;;;4.20;2.63;;;-0.10;98.00;;;;;;5053880;28;20539;-65
2024/01/08 05:19:05;;;;;;;4.80;2.73;;;-0.10;98.00;;;;;;5053856;28;20457;-65
2024/01/08 05:21:32;;;;;;;7.00;3.13;;;0.00;98.00;;;;;;5053913;28;20957;-65
2024/01/08 05:24:00;;;;;;;5.77;3.50;;;-0.10;98.00;;;;;;5053775;28;20513;-65
2024/01/08 05:26:27;;;;;;;6.27;2.80;;;-0.20;98.00;;;;;;5053872;28;20455;-65
2024/01/08 05:28:54;;;;;;;7.33;2.83;;;-0.20;98.00;;;;;;5053771;28;20526;-65
2024/01/08 05:31:22;;;;;;;4.77;2.50;;;-0.30;98.00;;;;;;5053573;28;20457;-65
2024/01/08 05:33:50;;;;;;;6.07;3.33;;;-0.30;98.00;;;;;;5053380;28;20575;-65
2024/01/08 05:36:17;;;;;;;6.20;3.00;;;-0.30;98.00;;;;;;5053365;28;20934;-65
2024/01/08 05:38:45;;;;;;;6.67;3.03;;;-0.30;98.00;;;;;;5053572;28;20502;-65
2024/01/08 05:41:12;;;;;;;4.80;2.80;;;-0.20;98.00;;;;;;5035270;28;20501;-65
2024/01/08 05:43:39;;;;;;;5.27;2.97;;;-0.10;98.00;;;;;;5053424;28;20460;-65
2024/01/08 05:46:07;;;;;;;5.80;2.80;;;-0.10;98.00;;;;;;5053333;28;20545;-65
2024/01/08 05:48:37;;;;;;;7.00;3.30;;;-0.20;98.00;;;;;;5053270;28;20926;-64
2024/01/08 05:51:06;;;;;;;5.63;2.70;;;-0.30;98.00;;;;;;5052761;28;20460;-65
2024/01/08 05:53:33;;;;;;;5.37;3.10;;;-0.40;98.00;;;;;;5053118;28;20483;-65
2024/01/08 05:56:01;;;;;;;6.40;3.03;;;-0.40;98.00;;;;;;5053036;28;20999;-65
2024/01/08 05:58:28;;;;;;;4.77;2.70;;;-0.50;98.00;;;;;;5052669;28;20475;-65
2024/01/08 06:00:55;;;;;;;6.77;3.07;;;-0.40;98.00;;;;;;5052715;28;20870;-65
2024/01/08 06:03:22;;;;;;;6.43;2.67;;;-0.30;98.00;;;;;;5052528;28;20459;-65
2024/01/08 06:05:50;;;;;;;6.27;3.20;;;-0.20;98.00;;;;;;5052414;28;20970;-65
2024/01/08 06:08:18;;;;;;;7.00;3.17;;;-0.20;98.00;;;;;;5052562;28;20456;-65
2024/01/08 06:10:46;;;;;;;5.90;3.23;;;-0.40;98.00;;;;;;5052672;28;20485;-65
2024/01/08 06:13:16;;;;;;;6.40;3.10;;;-0.30;98.00;;;;;;5052670;28;20940;-65
2024/01/08 06:15:43;;;;;;;5.10;2.60;;;-0.20;98.00;;;;;;5052527;28;20458;-65
2024/01/08 06:18:10;;;;;;;6.83;3.00;;;-0.20;98.00;;;;;;5052508;28;20886;-65
2024/01/08 06:20:37;;;;;;;6.83;3.17;;;-0.30;98.00;;;;;;5052487;28;20812;-65
2024/01/08 06:23:06;;;;;;;7.93;3.40;;;-0.40;98.00;;;;;;5052503;28;20466;-65
2024/01/08 06:25:34;;;;;;;10.43;3.20;;;-0.40;98.00;;;;;;5052458;28;20461;-65
2024/01/08 06:28:01;;;;;;;5.30;2.87;;;-0.40;98.00;;;;;;5052505;28;20456;-65
2024/01/08 06:30:30;;;;;;;6.13;2.90;;;-0.30;98.00;;;;;;5052334;28;20472;-65
2024/01/08 06:32:57;;;;;;;5.00;3.20;;;-0.30;98.00;;;;;;5052434;28;20459;-65
2024/01/08 06:35:24;;;;;;;6.27;3.43;;;-0.20;98.00;;;;;;5052225;28;20863;-65
2024/01/08 06:37:51;;;;;;;8.00;3.63;;;-0.20;98.00;;;;;;5052388;28;20487;-65
2024/01/08 06:40:18;;;;;;;6.10;3.30;;;-0.30;98.00;;;;;;5052325;28;20875;-65
2024/01/08 06:42:47;;;;;;;5.10;3.07;;;-0.30;98.00;;;;;;5051894;28;20455;-65
2024/01/08 06:45:14;;;;;;;5.40;3.07;;;-0.30;98.00;;;;;;5051902;28;20503;-65
2024/01/08 06:47:41;;;;;;;7.07;3.43;;;-0.30;98.00;;;;;;5052194;28;20463;-64
2024/01/08 06:50:09;;;;;;;7.67;3.20;;;-0.30;98.00;;;;;;5052140;28;20982;-64
2024/01/08 06:52:36;;;;;;;6.80;3.40;;;-0.20;98.00;;;;;;5052168;28;20456;-65
2024/01/08 06:55:05;;;;;;;6.07;2.90;;;-0.20;98.00;;;;;;5052142;28;20447;-65
2024/01/08 06:57:32;;;;;;;8.23;3.10;;;-0.20;98.00;;;;;;5051638;28;20486;-65
2024/01/08 07:00:00;;;;;;;6.53;3.37;;;-0.30;98.00;;;;;;5052169;28;20526;-67
2024/01/08 07:02:27;;;;;;;6.87;3.17;;;-0.30;98.00;;;;;;5052111;28;20508;-72
2024/01/08 07:04:55;;;;;;;5.97;3.03;;;-0.40;98.00;;;;;;5051947;28;20463;-72
2024/01/08 07:07:22;;;;;;;6.30;3.03;;;-0.40;98.00;;;;;;5052036;28;20468;-72
2024/01/08 07:09:49;;;;;;;6.80;3.00;;;-0.30;98.00;;;;;;5052078;28;20456;-72
2024/01/08 07:12:16;;;;;;;9.07;3.60;;;-0.40;98.00;;;;;;5051913;28;20458;-72
2024/01/08 07:14:46;;;;;;;7.33;3.20;;;-0.50;98.00;;;;;;5052023;28;20459;-72
2024/01/08 07:17:15;;;;;;;8.43;3.53;;;-0.60;98.00;;;;;;5052050;28;20609;-71
2024/01/08 07:19:42;;;;;;;4.87;2.70;;;-0.60;98.00;;;;;;5051933;28;20475;-71
2024/01/08 07:22:09;;;;;;;8.93;3.20;;;-0.60;98.00;;;;;;5051843;28;20920;-72
2024/01/08 07:24:36;;;;;;;8.50;3.30;;;-0.50;98.00;;;;;;5051794;28;20450;-72
2024/01/08 07:27:04;;;;;;;6.10;3.40;;;-0.50;98.00;;;;;;5051759;28;20683;-71
2024/01/08 07:29:31;;;;;;;5.10;2.97;;;-0.40;98.00;;;;;;5051920;28;20487;-72
2024/01/08 07:31:59;;;;;;;4.73;2.70;;;-0.40;98.00;;;;;;5051666;28;20453;-72
2024/01/08 07:34:28;;;;;;;6.40;3.43;;;-0.30;98.00;;;;;;5052206;28;20460;-72
2024/01/08 07:36:55;;;;;;;8.90;3.73;;;-0.20;98.00;;;;;;5051483;28;20456;-71
2024/01/08 07:39:22;;;;;;;7.03;2.93;;;-0.20;98.00;;;;;;5051797;28;20829;-71
2024/01/08 07:41:49;;;;;;;7.23;3.43;;;-0.20;98.00;;;;;;5051270;28;20460;-71
2024/01/08 07:44:16;;;;;;;5.40;3.30;;;-0.10;98.00;;;;;;5051381;28;20456;-71
2024/01/08 07:46:44;;;;;;;8.80;3.20;;;-0.10;98.00;;;;;;5051496;28;20452;-71
2024/01/08 07:49:11;;;;;;;6.27;3.40;;;-0.10;98.00;;;;;;5050998;28;20491;-71
2024/01/08 07:51:40;;;;;;;7.17;3.30;;;-0.20;98.00;;;;;;5050696;28;20505;-72
2024/01/08 07:54:07;;;;;;;5.50;3.27;;;-0.20;98.00;;;;;;5050832;28;20461;-71
2024/01/08 07:56:36;;;;;;;5.23;2.90;;;-0.30;98.00;;;;;;5053378;28;20459;-71
2024/01/08 07:59:04;;;;;;;5.17;3.20;;;-0.40;98.00;;;;;;5054658;28;20853;-71
2024/01/08 08:01:31;;;;;;;6.67;3.17;;;-0.40;98.00;;;;;;5020712;28;20491;-71
2024/01/08 08:03:58;;;;;;;6.73;2.70;;;-0.20;98.00;;;;;;5054675;28;20520;-71
2024/01/08 08:06:26;;;;;;;6.13;3.00;;;-0.10;98.00;;;;;;5055257;28;20551;-71
2024/01/08 08:08:55;;;;;;;5.77;2.60;;;-0.10;98.00;;;;;;5037353;28;20467;-71
2024/01/08 08:11:22;;;;;;;5.83;2.90;;;-0.20;98.00;;;;;;5055319;28;20467;-71
2024/01/08 08:13:49;;;;;;;6.60;3.10;;;-0.40;98.00;;;;;;5054430;28;20737;-71
2024/01/08 08:16:16;;;;;;;6.20;3.33;;;-0.30;98.00;;;;;;5054334;28;20978;-71
2024/01/08 08:18:44;;;;;;;5.50;2.80;;;-0.30;98.00;;;;;;5054236;28;20490;-71
2024/01/08 08:21:11;;;;;;;4.10;2.90;;;-0.40;98.00;;;;;;5054361;28;20921;-71
2024/01/08 08:23:38;;;;;;;5.60;2.93;;;-0.40;98.00;;;;;;5054355;28;20807;-71
2024/01/08 08:26:08;;;;;;;5.47;2.97;;;-0.40;98.00;;;;;;5054027;28;20473;-71
2024/01/08 08:28:35;;;;;;;6.33;3.20;;;-0.30;98.00;;;;;;5036297;28;20457;-71
2024/01/08 08:31:02;;;;;;;5.90;3.50;;;-0.40;98.00;;;;;;5053751;28;20465;-71
2024/01/08 08:33:30;;;;;;;7.63;3.23;;;-0.40;98.00;;;;;;5054384;28;20451;-71
2024/01/08 08:35:57;;;;;;;4.67;2.93;;;-0.40;98.00;;;;;;5053694;28;20459;-71
2024/01/08 08:38:24;;;;;;;7.10;3.40;;;-0.40;98.00;;;;;;5054093;28;20514;-72
2024/01/08 08:40:51;;;;;;;7.90;3.40;;;-0.50;98.00;;;;;;5053770;28;20461;-71
2024/01/08 08:43:19;;;;;;;5.70;3.10;;;-0.50;98.00;;;;;;5053955;28;20452;-72
2024/01/08 08:45:46;;;;;;;6.90;3.17;;;-0.60;98.00;;;;;;5053725;28;20459;-72
2024/01/08 08:48:13;;;;;;;6.37;3.77;;;-0.50;98.00;;;;;;5054058;28;20463;-71
2024/01/08 08:50:41;;;;;;;9.00;3.30;;;-0.60;98.00;;;;;;5055548;28;20449;-72
2024/01/08 08:53:08;;;;;;;5.90;3.17;;;-0.50;98.00;;;;;;5053788;28;20472;-71
2024/01/08 08:55:36;;;;;;;8.07;3.30;;;-0.50;98.00;;;;;;5053923;28;20448;-71
2024/01/08 08:58:08;;;;;;;6.90;3.10;;;-0.40;98.00;;;;;;5035754;28;20483;-71
2024/01/08 09:00:45;;;;;;;7.10;3.27;;;-0.40;98.00;;;;;;5053664;28;20453;-72
2024/01/08 09:03:12;;;;;;;6.93;3.07;;;-0.40;98.00;;;;;;5035769;28;20793;-71
2024/01/08 09:05:39;;;;;;;8.00;3.47;;;-0.40;98.00;;;;;;5053247;28;20481;-71
2024/01/08 09:08:06;;;;;;;6.40;3.43;;;-0.30;98.00;;;;;;5052623;28;20459;-71
2024/01/08 09:10:34;;;;;;;6.47;3.17;;;-0.30;98.00;;;;;;5053346;28;20468;-72
2024/01/08 09:13:01;;;;;;;7.50;3.27;;;-0.30;98.00;;;;;;5053391;28;20790;-72
2024/01/08 09:15:28;;;;;;;6.83;3.10;;;-0.20;98.00;;;;;;5053698;28;20450;-71
2024/01/08 09:17:57;;;;;;;5.93;2.97;;;-0.20;98.00;;;;;;5053032;28;21031;-72
2024/01/08 09:20:24;;;;;;;6.83;3.07;;;-0.10;98.00;;;;;;5052649;28;20465;-72
2024/01/08 09:22:51;;;;;;;7.77;3.70;;;-0.20;98.00;;;;;;5052675;28;20457;-72
2024/01/08 09:25:19;;;;;;;5.80;2.73;;;-0.30;98.00;;;;;;5052081;28;20474;-72
2024/01/08 09:27:47;;;;;;;6.33;3.43;;;-0.30;98.00;;;;;;5052417;28;20538;-71
2024/01/08 09:30:14;;;;;;;9.80;3.70;;;-0.30;98.00;;;;;;5052992;28;20463;-73
2024/01/08 09:32:41;;;;;;;7.87;3.90;;;-0.20;98.00;;;;;;5052729;28;20463;-72
2024/01/08 09:35:09;;;;;;;8.63;3.60;;;-0.20;98.00;;;;;;5067872;28;20812;-73
2024/01/08 09:37:37;;;;;;;8.93;3.50;;;-0.10;98.00;;;;;;5072767;28;20481;-72
2024/01/08 09:40:04;;;;;;;5.73;2.90;;;0.00;98.00;;;;;;5072398;28;20483;-72
2024/01/08 09:42:34;;;;;;;8.57;4.07;;;0.10;98.00;;;;;;5072962;28;20455;-72
2024/01/08 09:45:03;;;;;;;6.47;3.23;;;0.10;98.00;;;;;;5072759;28;20467;-72
2024/01/08 09:47:32;;;;;;;8.10;4.30;;;0.10;98.00;;;;;;5072839;28;20542;-72
2024/01/08 09:50:00;;;;;;;9.07;3.80;;;0.00;98.00;;;;;;5072909;28;20451;-72
2024/01/08 09:52:28;;;;;;;9.53;4.40;;;0.00;98.00;;;;;;5072940;28;20468;-72
2024/01/08 09:54:56;;;;;;;7.00;3.30;;;0.00;98.00;;;;;;5073354;28;20466;-71
2024/01/08 09:57:23;;;;;;;8.00;3.23;;;0.00;98.00;;;;;;5073073;28;20454;-70
2024/01/08 09:59:50;;;;;;;8.73;2.97;;;0.00;98.00;;;;;;5072842;28;20487;-69
2024/01/08 10:02:18;;;;;;;6.47;3.23;;;0.00;98.00;;;;;;5072661;28;20455;-67
2024/01/08 10:04:45;;;;;;;8.80;4.00;;;0.40;98.00;;;;;;5072636;28;20446;-66
2024/01/08 10:07:13;;;;;;;5.90;3.07;;;0.50;98.00;;;;;;5072777;28;20455;-66
2024/01/08 10:09:41;;;;;;;6.27;3.20;;;0.50;98.00;;;;;;5072609;28;20463;-66
2024/01/08 10:12:10;;;;;;;8.67;3.60;;;0.50;98.00;;;;;;5072619;28;20476;-66
2024/01/08 10:14:37;;;;;;;5.90;3.30;;;0.50;98.00;;;;;;5072761;28;20495;-66
2024/01/08 10:17:06;;;;;;;5.50;3.00;;;0.50;98.00;;;;;;5072511;28;20783;-66
2024/01/08 10:19:33;;;;;;;5.97;3.23;;;0.50;98.00;;;;;;5071592;28;20487;-66
2024/01/08 10:22:10;;;;;;;3.80;2.43;;;0.40;98.00;;;;;;5071985;28;20448;-66
2024/01/08 10:24:39;;;;;;;5.90;2.93;;;0.40;98.00;;;;;;5072715;28;20443;-66
2024/01/08 10:27:08;;;;;;;5.70;2.77;;;0.40;98.00;;;;;;5072069;28;20853;-66
2024/01/08 10:29:37;;;;;;;8.77;3.53;;;0.80;98.00;;;;;;5072324;28;20452;-69
2024/01/08 10:32:06;;;;;;;7.93;3.77;;;1.20;98.00;;;;;;5071770;28;20456;-64
2024/01/08 10:34:39;;;;;;;6.90;3.10;;;1.50;98.00;;;;;;5072483;28;20453;-70
2024/01/08 10:37:06;;;;;;;9.77;3.50;;;1.40;98.00;;;;;;5071530;28;20460;-68
2024/01/08 10:39:35;;;;;;;8.70;3.33;;;1.20;98.00;;;;;;5071823;28;20487;-68
2024/01/08 10:42:02;;;;;;;6.20;3.00;;;1.10;98.00;;;;;;5072423;28;20447;-67
2024/01/08 10:44:31;;;;;;;10.13;3.17;;;;;;;;;;5072442;28;20467;-68
2024/01/08 10:47:00;;;;;;;5.77;2.90;;;0.90;98.00;;;;;;5071971;28;20452;-65
2024/01/08 10:49:33;;;;;;;6.90;3.13;;;0.80;98.00;;;;;;5072186;28;20463;-60
2024/01/08 10:52:01;;;;;;;8.93;3.80;;;0.70;98.00;;;;;;5054739;28;20918;-64
2024/01/08 10:54:37;;;;;;;5.63;3.20;;;0.80;98.00;;;;;;5065235;28;20492;-68
2024/01/08 10:57:07;;;;;;;6.17;3.10;;;0.60;98.00;;;;;;5051908;28;20471;-68
2024/01/08 10:59:38;;;;;;;5.67;3.23;;;0.60;98.00;;;;;;5052179;28;20490;-68
2024/01/08 11:02:10;;;;;;;6.40;3.20;;;0.50;98.00;;;;;;5052100;28;20827;-68
2024/01/08 11:04:37;;;;;;;5.77;2.90;;;0.60;98.00;;;;;;5051666;28;20457;-68
2024/01/08 11:07:07;;;;;;;6.33;3.00;;;0.60;98.00;;;;;;5051606;28;20448;-68
2024/01/08 11:09:35;;;;;;;8.03;3.30;;;0.60;98.00;;;;;;5051874;28;20462;-68
2024/01/08 11:12:03;;;;;;;5.47;3.30;;;0.40;98.00;;;;;;5051937;28;20460;-64
2024/01/08 11:14:31;;;;;;;6.63;3.83;;;0.60;98.00;;;;;;5051923;28;20538;-72
2024/01/08 11:17:00;;;;;;;7.73;4.00;;;1.00;98.00;;;;;;5051486;28;20453;-72
2024/01/08 11:19:28;;;;;;;7.73;3.67;;;0.80;98.00;;;;;;5051704;28;21018;-70
2024/01/08 11:21:56;;;;;;;8.10;3.70;;;0.80;98.00;;;;;;5051750;28;20456;-71
2024/01/08 11:24:25;;;;;;;5.50;2.97;;;0.70;98.00;;;;;;5052094;28;20465;-71
2024/01/08 11:26:54;;;;;;;6.90;3.40;;;0.70;98.00;;;;;;5051893;28;20465;-71
2024/01/08 11:29:22;;;;;;;8.30;3.60;;;0.80;98.00;;;;;;5052431;28;20449;-71
2024/01/08 11:32:23;;;;;;;10.00;3.10;;;0.80;98.00;;;;;;5056413;28;20452;-71
2024/01/08 11:34:59;;;;;;;7.63;3.30;;;0.80;98.00;;;;;;5055840;28;20460;-71
2024/01/08 11:37:31;;;;;;;6.70;3.57;;;0.80;98.00;;;;;;5055783;28;20579;-70
2024/01/08 11:40:02;;;;;;;5.10;3.30;;;0.80;98.00;;;;;;5055511;28;20496;-71
2024/01/08 11:42:30;;;;;;;6.43;3.30;;;;;;;;;;5055606;28;20495;-71
2024/01/08 11:44:59;;;;;;;5.63;3.10;;;0.80;98.00;;;;;;5055574;28;20448;-71
2024/01/08 11:47:30;;;;;;;7.03;3.07;;;0.70;98.00;;;;;;5055553;28;20506;-71
2024/01/08 11:49:59;;;;;;;6.70;3.50;;;0.80;98.00;;;;;;5054820;28;20464;-71
2024/01/08 11:52:27;;;;;;;7.80;3.47;;;0.80;98.00;;;;;;5055546;28;20466;-71
2024/01/08 11:54:55;;;;;;;5.67;3.40;;;0.70;98.00;;;;;;5055364;28;20449;-71
2024/01/08 11:57:23;;;;;;;5.50;3.00;;;0.90;98.00;;;;;;5054978;28;20457;-71
2024/01/08 11:59:50;;;;;;;10.60;3.90;;;0.90;98.00;;;;;;5055134;28;20994;-71
2024/01/08 12:02:18;;;;;;;6.80;3.53;;;0.90;98.00;;;;;;5055525;28;20789;-71
2024/01/08 12:04:54;;;;;;;8.53;4.20;;;1.00;98.00;;;;;;5055031;28;20936;-71
2024/01/08 12:07:25;;;;;;;7.03;3.40;;;1.00;98.00;;;;;;5037829;28;20451;-71
2024/01/08 12:09:53;;;;;;;7.30;3.97;;;1.20;98.00;;;;;;5055119;28;20488;-71
2024/01/08 12:12:22;;;;;;;7.03;3.63;;;1.10;98.00;;;;;;5054834;28;20449;-71
2024/01/08 12:14:51;;;;;;;9.63;4.10;;;1.00;98.00;;;;;;5054960;28;20488;-71
2024/01/08 12:17:19;;;;;;;11.00;3.70;;;;;;;;;;5054934;28;20469;-71
2024/01/08 12:19:49;;;;;;;9.60;3.70;;;1.10;98.00;;;;;;5054865;28;20493;-71
2024/01/08 12:22:18;;;;;;;9.60;3.70;;;1.10;98.00;;;;;;5054697;28;20449;-70
2024/01/08 12:24:48;;;;;;;7.33;3.67;;;1.10;98.00;;;;;;5054369;28;20488;-70
2024/01/08 12:27:17;;;;;;;11.73;4.60;;;1.00;98.00;;;;;;5054735;28;20460;-71
2024/01/08 12:29:45;;;;;;;7.13;3.90;;;0.90;98.00;;;;;;5054638;28;20452;-71
2024/01/08 12:32:15;;;;;;;8.70;3.37;;;0.90;98.00;;;;;;5053847;28;20462;-71
2024/01/08 12:34:43;;;;;;;7.13;3.77;;;1.00;98.00;;;;;;5053904;28;20965;-71
2024/01/08 12:37:12;;;;;;;7.57;4.00;;;0.90;98.00;;;;;;5054271;28;20465;-71
2024/01/08 12:39:39;;;;;;;7.93;4.00;;;0.90;98.00;;;;;;5054851;28;20562;-71
2024/01/08 12:42:10;;;;;;;8.00;3.40;;;1.00;98.00;;;;;;5053416;28;20461;-70
2024/01/08 12:44:37;;;;;;;5.93;3.40;;;1.20;98.00;;;;;;5054066;28;20464;-71
2024/01/08 12:47:07;;;;;;;7.07;3.50;;;1.40;98.00;;;;;;5054027;28;20837;-71
2024/01/08 12:49:35;;;;;;;6.57;3.30;;;1.50;98.00;;;;;;5053919;28;20535;-71
2024/01/08 12:52:03;;;;;;;7.43;3.50;;;1.60;98.00;;;;;;5054041;28;20462;-69
2024/01/08 12:54:31;;;;;;;6.90;3.30;;;1.70;98.00;;;;;;5054085;28;20496;-67
2024/01/08 12:56:59;;;;;;;8.27;3.80;;;1.70;98.00;;;;;;5053988;28;20457;-68